Tiempo atmosférico en la estación meteorológica de Villarino De Los Aires, Salamanca (700 m.)



Fecha
DESCASC
Temp. máxima en grados centígrados (hora)
DESCASC
Temp. mínima en grados centígrados (hora)
DESCASC
Temp. media en grados centígrados
DESCASC
Racha de viento máxima en m/sg (hora)
DESCASC
Velocidad máxima media en intervalos de 10 minutos(hora)
DESCASC
Precipitaciones diarias en mm
DESCASC
Precipitaciones de 00:00 a 06:00 en mm
DESCASC
Precipitaciones de 06:00 a 12:00 en mm
DESCASC
Precipitaciones de 12:00 a 18:00 en mm
DESCASC
Precipitaciones de 18:00 a 24:00 en mm
DESCASC
18-04-2019 17.5 (17:50) 7.1 (07:30) 12.3 10 (20:40) 6.39 (20:40) 9.8 2.8 0 0.6 6.4
17-04-2019 18.6 (15:40) 9 (23:50) 13.8 12.5 (15:40) 7.78 (16:00) 9.2 0 0 0 9.2
16-04-2019 20.1 (16:50) 3.4 (00:00) 11.8 9.17 (14:30) 5 (05:00) 0 0 0 0 0
15-04-2019 17.3 (13:30) 8.3 (00:00) 12.8 16.11 (14:10) 11.67 (14:20) 2.6 0 0 0.2 2.4
14-04-2019 19.8 (20:10) 11.1 (00:00) 15.4 6.39 (14:40) 3.89 (13:20) 0.4 0 0.4 0 0
13-04-2019 21.5 (17:10) 6.5 (00:00) 14 9.44 (20:10) 5.83 (21:20) 0 0 0 0 0
12-04-2019 19.4 (18:20) 2.2 (00:00) 10.8 8.33 (12:50) 3.61 (19:50) 0 0 0 0 0
11-04-2019 17.2 (17:00) 2.9 (00:00) 10.1 5.83 (17:10) 3.61 (00:20) 0 0 0 0 0
10-04-2019 15.1 (20:00) 4.9 (00:00) 10 14.17 (17:30) 9.72 (17:50) 0.8 0 0.8 0 0
09-04-2019 11.7 (15:10) 4.5 (00:00) 8.1 14.17 (10:30) 8.89 (10:30) 6.6 0.6 4.6 0.8 0.6
08-04-2019 12.9 (16:00) 6.6 (00:00) 9.7 13.33 (16:50) 7.5 (06:10) 4.8 1.2 0 2.2 1.4
07-04-2019 9 (22:30) 2.8 (00:00) 5.9 10.83 (01:30) 6.39 (21:10) 5.6 0.6 0 2.6 2.4
06-04-2019 9 (17:40) 1.1 (00:00) 5.1 15.28 (17:00) 9.44 (13:20) 9.4 0.4 5 3.2 0.8
05-04-2019 10.6 (16:30) 2.4 (00:00) 6.5 12.22 (17:40) 8.61 (17:40) 10 5 0 1.2 3.8
04-04-2019 11.1 (15:40) -0.1 (00:00) 5.5 10.83 (16:50) 6.94 (16:50) 1.8 0 0 0 1.8
03-04-2019 13 (17:40) 3.5 (08:10) 8.3 14.17 (14:40) 9.17 (15:10) 0 0 0 0 0
02-04-2019 18.8 (17:30) 8.3 (00:00) 13.5 11.39 (18:20) 7.5 (18:10) 0 0 0 0 0
01-04-2019 19.9 (17:00) 4.3 (00:00) 12.1 10.56 (20:30) 6.94 (20:30) 3.8 0 0 0 3.8
31-03-2019 22 (18:00) 6.1 (00:00) 14 10.83 (15:30) 4.72 (16:30) 0 0 0 0 0
30-03-2019 20.5 (14:30) 5 (00:00) 12.8 7.5 (02:20) 5.83 (02:00) 0 0 0 0 0
29-03-2019 20.8 (18:20) 3 (00:00) 11.9 8.33 (14:30) 6.11 (22:40) 0 0 0 0 0
28-03-2019 19.7 (16:30) 2.6 (00:00) 11.2 11.11 (01:00) 6.94 (01:40) 0 0 0 0 0
27-03-2019 20.4 (17:30) 1.9 (00:00) 11.1 12.78 (23:00) 8.06 (21:50) 0 0 0 0 0
26-03-2019 19.4 (17:30) 3.1 (00:00) 11.2 14.72 (17:30) 9.17 (12:40) 0 0 0 0 0
25-03-2019 18.6 (16:10) 5.4 (00:00) 12 13.61 (22:50) 7.78 (17:00) 0 0 0 0 0
24-03-2019 21.6 (17:00) 5.2 (00:00) 13.4 10.28 (14:00) 6.39 (15:00) 0 0 0 0 0
23-03-2019 20.9 (16:00) 3.6 (00:00) 12.2 8.61 (16:20) 4.72 (15:10) 0 0 0 0 0
22-03-2019 19.3 (17:40) 1.4 (00:00) 10.3 6.11 (17:00) 3.61 (06:30) 0 0 0 0 0
21-03-2019 18 (17:10) 0.1 (00:00) 9.1 7.5 (00:10) 5.28 (10:20) 0 0 0 0 0

Gráficas

Temp. máximas Temp. mínimas Temp. medias Precipitaciones Rachas de viento máximas Velocidades máximas media en intervalos de 10 minutos

Datos horarios

Fecha y hora oficial Temperatura (ºC) Velocidad del viento (km/h) Dirección del viento Racha (km/h) Dirección de racha Precipitación (mm) Presión (hPa) Tendencia (hPa) Humedad (%)
2019-04-19 23:00:00 13.4 25 Nordeste 42 Nordeste 0 -- -- 68
2019-04-19 22:00:00 13 18 Nordeste 31 Este 0 -- -- 74
2019-04-19 21:00:00 13.2 20 Este 41 Este 0 -- -- 69
2019-04-19 20:00:00 13.3 26 Este 51 Nordeste 0 -- -- 71
2019-04-19 19:00:00 15.2 30 Nordeste 52 Nordeste 0 -- -- 63
2019-04-19 18:00:00 16.8 26 Este 41 Nordeste 0 -- -- 57
2019-04-19 17:00:00 16.4 23 Este 39 Este 0 -- -- 55
2019-04-19 16:00:00 16.4 22 Este 37 Este 0 -- -- 57
2019-04-19 15:00:00 15.3 23 Nordeste 42 Este 0 -- -- 58
2019-04-19 14:00:00 16.1 21 Este 41 Este 0 -- -- 58
2019-04-19 13:00:00 14 23 Este 37 Este 0 -- -- 67
2019-04-19 12:00:00 13.4 19 Este 35 Este 0 -- -- 73
2019-04-19 11:00:00 11.2 22 Este 31 Este 0 -- -- 82
2019-04-19 10:00:00 10.2 17 Este 27 Este 0 -- -- 91
2019-04-19 09:00:00 8.5 8 Este 13 Este 0 -- -- 98
2019-04-19 08:00:00 7.7 5 Este 10 Este 0.2 -- -- 98
2019-04-19 07:00:00 8 5 Este 10 Nordeste 1.6 -- -- 98
2019-04-19 06:00:00 8.1 3 Norte 10 Nordeste 1.4 -- -- 98
2019-04-19 05:00:00 8.2 5 Nordeste 13 Noroeste 2.4 -- -- 98
2019-04-19 04:00:00 8.3 5 Noroeste 11 Noroeste 1.4 -- -- 98
2019-04-19 03:00:00 8.4 9 Noroeste 16 Oeste 1.4 -- -- 98
2019-04-19 02:00:00 8.5 10 Oeste 14 Oeste 1.8 -- -- 97
2019-04-19 01:00:00 8.3 5 Oeste 7 Oeste 1.6 -- -- 95
2019-04-19 00:00:00 8.1 2 Oeste 9 Sudeste 1 -- -- 94
2019-04-18 23:00:00 8.8 5 Sudeste 13 Sur 0 -- -- 87
2019-04-18 22:00:00 8.2 10 Sur 26 Nordeste 3 -- -- 90
2019-04-18 21:00:00 9.3 18 Este 36 Nordeste 2.4 -- -- 88
2019-04-18 20:00:00 15.7 2 Noroeste 10 Noroeste 0 -- -- 51
2019-04-18 19:00:00 15.1 5 Norte 15 Norte 0 -- -- 52
2019-04-18 18:00:00 16.4 8 Noroeste 19 Norte 0 -- -- 50
2019-04-18 17:00:00 16.4 6 Nordeste 15 Norte 0 -- -- 50
2019-04-18 16:00:00 14.3 3 Norte 13 Nordeste 0 -- -- 60
2019-04-18 15:00:00 12.1 8 Sur 17 Sudeste 0.2 -- -- 73
2019-04-18 14:00:00 12.6 7 Sudeste 14 Sur 0 -- -- 74
2019-04-18 13:00:00 12.9 6 Este 12 Este 0.4 -- -- 74
2019-04-18 12:00:00 11.3 5 Nordeste 9 Norte 0 -- -- 82
2019-04-18 11:00:00 11 3 Este 12 Este 0 -- -- 78
2019-04-18 10:00:00 9.8 5 Este 9 Este 0 -- -- 89
2019-04-18 09:00:00 7.9 4 Nordeste 19 Sur 0 -- -- 94
2019-04-18 08:00:00 7.4 11 Sur 18 Sur 0 -- -- 94
2019-04-18 07:00:00 7.2 11 Sur 16 Sur 0 -- -- 94
2019-04-18 06:00:00 8.1 12 Sur 18 Sur 0.2 -- -- 94
2019-04-18 05:00:00 8 9 Sur 19 Sur 0 -- -- 94
2019-04-18 04:00:00 8 13 Sur 24 Sur 0 -- -- 94
2019-04-18 03:00:00 8.6 13 Sur 21 Sur 0.6 -- -- 94
2019-04-18 02:00:00 8.6 10 Sudoeste 20 Sur 1.4 -- -- 96
2019-04-18 01:00:00 8.8 8 Sudoeste 26 Sudoeste 0.6 -- -- 95
2019-04-18 00:00:00 9 10 Sudoeste 28 Sur 0.4 -- -- 94
2019-04-17 23:00:00 9.2 16 Sur 28 Sur 0.2 -- -- 93
2019-04-17 22:00:00 9.2 18 Sur 29 Sudeste 1 -- -- 93
2019-04-17 21:00:00 9.3 8 Sur 19 Sur 2.4 -- -- 93
2019-04-17 20:00:00 9.5 9 Sudoeste 25 Sudoeste 3.6 -- -- 94
2019-04-17 19:00:00 10.1 19 Sudoeste 42 Sudoeste 1.6 -- -- 93
2019-04-17 18:00:00 16.4 17 Sur 38 Sudeste 0 -- -- 53
2019-04-17 17:00:00 16.9 23 Sur 42 Sur 0 -- -- 50
2019-04-17 16:00:00 18 28 Sur 45 Sudeste 0 -- -- 46
2019-04-17 15:00:00 18.1 17 Sur 37 Sudeste 0 -- -- 50
2019-04-17 14:00:00 15.2 19 Sur 33 Sur 0 -- -- 57
2019-04-17 13:00:00 14.6 20 Sur 33 Sur 0 -- -- 61
2019-04-17 12:00:00 13.3 16 Sur 24 Sur 0 -- -- 63
2019-04-17 11:00:00 12.4 6 Sur 14 Sudoeste 0 -- -- 67
2019-04-17 10:00:00 11.8 8 Sudoeste 13 Sur 0 -- -- 67
2019-04-17 09:00:00 11 5 Sur 18 Sudoeste 0 -- -- 66
2019-04-17 08:00:00 10.7 11 Sudoeste 19 Sudoeste 0 -- -- 62
2019-04-17 07:00:00 9.6 5 Sudoeste 10 Sudeste 0 -- -- 64
2019-04-17 06:00:00 10.9 8 Sur 15 Sur 0 -- -- 61
2019-04-17 05:00:00 11.7 9 Sudoeste 18 Sur 0 -- -- 60
2019-04-17 04:00:00 12 10 Sudeste 22 Sudeste 0 -- -- 60
2019-04-17 03:00:00 12.2 15 Sudeste 23 Sudeste 0 -- -- 59
2019-04-17 02:00:00 12 15 Sudeste 23 Sudeste 0 -- -- 60
2019-04-17 01:00:00 12.6 13 Sudeste 21 Sudeste 0 -- -- 60
2019-04-17 00:00:00 13.2 11 Sudeste 17 Sudeste 0 -- -- 59
2019-04-16 23:00:00 13.4 12 Sudeste 14 Sudeste 0 -- -- 58
2019-04-16 22:00:00 13.3 7 Sudeste 10 Sudeste 0 -- -- 57
2019-04-16 21:00:00 15.3 8 Sur 10 Sur 0 -- -- 48
2019-04-16 20:00:00 16.9 8 Sur 18 Sur 0 -- -- 42
2019-04-16 19:00:00 18.7 12 Sur 20 Sur 0 -- -- 41
2019-04-16 18:00:00 19.1 13 Sur 23 Sudeste 0 -- -- 38
2019-04-16 17:00:00 19 11 Sudoeste 23 Sur 0 -- -- 41
2019-04-16 16:00:00 17.9 10 Sur 26 Sur 0 -- -- 40
2019-04-16 15:00:00 17.3 14 Sur 33 Sur 0 -- -- 37
2019-04-16 14:00:00 16.9 10 Sur 23 Sudeste 0 -- -- 48
2019-04-16 13:00:00 15.4 10 Sudeste 22 Este 0 -- -- 55
2019-04-16 12:00:00 13.4 11 Este 22 Este 0 -- -- 67
2019-04-16 11:00:00 10.6 9 Nordeste 15 Nordeste 0 -- -- 78
2019-04-16 10:00:00 8.1 5 Nordeste 8 Nordeste 0 -- -- 88
2019-04-16 09:00:00 4.6 0 Calma 6 Sudeste 0 -- -- 95
2019-04-16 08:00:00 3.8 5 Sudeste 6 Sudeste 0 -- -- 96
2019-04-16 07:00:00 3.8 0 Calma 9 Sur 0 -- -- 94
2019-04-16 06:00:00 4.4 4 Sudoeste 19 Sur 0 -- -- 94
2019-04-16 05:00:00 5.1 18 Sur 22 Sur 0 -- -- 90
2019-04-16 04:00:00 6.1 6 Oeste 16 Sudoeste 0 -- -- 86
2019-04-16 03:00:00 6.7 13 Sudoeste 16 Sudoeste 0 -- -- 86
2019-04-16 02:00:00 6 3 Oeste 15 Oeste 0 -- -- 90
2019-04-16 01:00:00 7.8 11 Oeste 21 Oeste 0 -- -- 81
2019-04-16 00:00:00 8.4 13 Sudoeste 18 Sudoeste 0 -- -- 80
2019-04-15 23:00:00 9.3 13 Oeste 28 Oeste 0 -- -- 78
2019-04-15 22:00:00 10.2 17 Oeste 39 Oeste 0 -- -- 75
2019-04-15 21:00:00 11.7 23 Oeste 39 Oeste 0 -- -- 71
2019-04-15 20:00:00 13.3 25 Oeste 37 Oeste 0 -- -- 71
2019-04-15 19:00:00 13.2 18 Sudoeste 31 Oeste 2.4 -- -- 80
2019-04-15 18:00:00 12.3 14 Oeste 28 Oeste 0 -- -- 76
2019-04-15 17:00:00 13.3 13 Oeste 26 Sudoeste 0 -- -- 75
2019-04-15 16:00:00 10.7 15 Oeste 50 Oeste 0.2 -- -- 82
2019-04-15 15:00:00 13.9 31 Oeste 58 Oeste 0 -- -- 59
2019-04-15 14:00:00 14.4 36 Oeste 56 Oeste 0 -- -- 62
2019-04-15 13:00:00 16.8 23 Oeste 38 Oeste 0 -- -- 63
2019-04-15 12:00:00 14.8 28 Oeste 44 Oeste 0 -- -- 73
2019-04-15 11:00:00 14.3 21 Oeste 40 Sudoeste 0 -- -- 83
2019-04-15 10:00:00 15.3 15 Sur 27 Sur 0 -- -- 78
2019-04-15 09:00:00 14.7 7 Sudoeste 21 Sur 0 -- -- 80
2019-04-15 08:00:00 12.6 3 Sudoeste 11 Sudeste 0 -- -- 87
2019-04-15 07:00:00 12.8 5 Sur 12 Sur 0 -- -- 86
2019-04-15 06:00:00 12.9 9 Sur 14 Sur 0 -- -- 86
2019-04-15 05:00:00 13.2 9 Sur 14 Sudeste 0 -- -- 85
2019-04-15 04:00:00 12.5 9 Sur 13 Sur 0 -- -- 88
2019-04-15 03:00:00 13.5 11 Sur 19 Sur 0 -- -- 85
2019-04-15 02:00:00 14.4 13 Sudoeste 18 Sudoeste 0 -- -- 80
2019-04-15 01:00:00 14.2 15 Sur 17 Sur 0 -- -- 80
2019-04-15 00:00:00 15.2 10 Sur 11 Sur 0 -- -- 75
2019-04-14 23:00:00 15.7 7 Sudeste 9 Sudeste 0 -- -- 76
2019-04-14 22:00:00 15.8 0 Calma 3 Sudeste 0 -- -- 74
2019-04-14 21:00:00 16.6 0 Calma 6 Oeste 0 -- -- 71
2019-04-14 20:00:00 19.7 5 Oeste 13 Noroeste 0 -- -- 61
2019-04-14 19:00:00 18.3 10 Oeste 18 Noroeste 0 -- -- 67
2019-04-14 18:00:00 19.2 10 Noroeste 18 Noroeste 0 -- -- 64
2019-04-14 17:00:00 18.9 13 Oeste 22 Oeste 0 -- -- 66
2019-04-14 16:00:00 17.7 10 Oeste 22 Oeste 0 -- -- 71
2019-04-14 15:00:00 18.5 12 Oeste 23 Oeste 0 -- -- 69
2019-04-14 14:00:00 18.6 13 Sudoeste 21 Sudoeste 0 -- -- 71
2019-04-14 13:00:00 16 10 Oeste 19 Noroeste 0 -- -- 79
2019-04-14 12:00:00 15.3 8 Sudoeste 14 Sudoeste 0.4 -- -- 84
2019-04-14 11:00:00 12.9 6 Noroeste 13 Sudoeste 0 -- -- 93
2019-04-14 10:00:00 13.2 5 Sudoeste 12 Sur 0 -- -- 89
2019-04-14 09:00:00 11.9 4 Sur 15 Sur 0 -- -- 93
2019-04-14 08:00:00 11.3 12 Sur 17 Sur 0 -- -- 94
2019-04-14 07:00:00 11.1 8 Sur 16 Sur 0 -- -- 94
2019-04-14 06:00:00 11.1 10 Sur 14 Sur 0 -- -- 93
2019-04-14 05:00:00 11.7 9 Sudoeste 16 Sudoeste 0 -- -- 91
2019-04-14 04:00:00 11.5 10 Sudoeste 13 Sudoeste 0 -- -- 90
2019-04-14 03:00:00 12 8 Sudoeste 11 Sudoeste 0 -- -- 86
2019-04-14 02:00:00 12.7 8 Oeste 18 Oeste 0 -- -- 79
2019-04-14 01:00:00 13.2 11 Oeste 20 Oeste 0 -- -- 76
2019-04-14 00:00:00 14 14 Oeste 23 Oeste 0 -- -- 71
2019-04-13 23:00:00 14.4 15 Oeste 23 Oeste 0 -- -- 67
2019-04-13 22:00:00 15 14 Oeste 28 Oeste 0 -- -- 61
2019-04-13 21:00:00 16 18 Oeste 34 Noroeste 0 -- -- 53
2019-04-13 20:00:00 17.2 20 Oeste 29 Oeste 0 -- -- 50
2019-04-13 19:00:00 19.5 11 Noroeste 28 Oeste 0 -- -- 41
2019-04-13 18:00:00 20.8 15 Noroeste 29 Noroeste 0 -- -- 38
2019-04-13 17:00:00 21.2 13 Oeste 31 Oeste 0 -- -- 37
2019-04-13 16:00:00 20.9 12 Noroeste 24 Oeste 0 -- -- 39
2019-04-13 15:00:00 19.9 8 Sudoeste 26 Noroeste 0 -- -- 38
2019-04-13 14:00:00 19.2 13 Oeste 22 Oeste 0 -- -- 40
2019-04-13 13:00:00 17.5 8 Noroeste 14 Noroeste 0 -- -- 52
2019-04-13 12:00:00 15.2 6 Noroeste 11 Noroeste 0 -- -- 61
2019-04-13 11:00:00 13.1 3 Norte 8 Noroeste 0 -- -- 62
2019-04-13 10:00:00 8.9 4 Oeste 6 Oeste 0 -- -- 72
2019-04-13 09:00:00 9.3 0 Calma 9 Sudeste 0 -- -- 72
2019-04-13 08:00:00 6.9 0 Calma 4 Noroeste 0 -- -- 75
2019-04-13 07:00:00 6.7 0 Calma 8 Sudoeste 0 -- -- 75
2019-04-13 06:00:00 7.4 0 Calma 9 Sur 0 -- -- 69
2019-04-13 05:00:00 7.8 0 Calma 5 Sudoeste 0 -- -- 67
2019-04-13 04:00:00 7.8 2 Oeste 6 Sudoeste 0 -- -- 67
2019-04-13 03:00:00 8.9 6 Sudoeste 9 Sudoeste 0 -- -- 62
2019-04-13 02:00:00 8.1 5 Oeste 8 Oeste 0 -- -- 62
2019-04-13 01:00:00 9.6 3 Sudoeste 6 Sur 0 -- -- 54
2019-04-13 00:00:00 10.5 5 Sudoeste 9 Sudoeste 0 -- -- 51
2019-04-12 23:00:00 11.8 8 Sudoeste 12 Sudoeste 0 -- -- 46
2019-04-12 22:00:00 12.1 10 Sudoeste 13 Sudoeste 0 -- -- 46
2019-04-12 21:00:00 13.7 9 Oeste 18 Oeste 0 -- -- 41
2019-04-12 20:00:00 17.3 11 Oeste 21 Oeste 0 -- -- 37
2019-04-12 19:00:00 19 6 Oeste 19 Oeste 0 -- -- 37
2019-04-12 18:00:00 18.2 5 Sudoeste 17 Noroeste 0 -- -- 37
2019-04-12 17:00:00 18.2 10 Oeste 22 Oeste 0 -- -- 38
2019-04-12 16:00:00 17.4 5 Oeste 21 Noroeste 0 -- -- 39
2019-04-12 15:00:00 16.3 11 Noroeste 22 Noroeste 0 -- -- 42
2019-04-12 14:00:00 14.8 8 Noroeste 24 Este 0 -- -- 48
2019-04-12 13:00:00 14.6 6 Nordeste 30 Este 0 -- -- 55
2019-04-12 12:00:00 12.7 6 Nordeste 17 Nordeste 0 -- -- 60
2019-04-12 11:00:00 9.4 10 Nordeste 16 Nordeste 0 -- -- 72
2019-04-12 10:00:00 5.6 4 Norte 6 Nordeste 0 -- -- 85
2019-04-12 09:00:00 4 0 Calma 3 Este 0 -- -- 90
2019-04-12 08:00:00 2.4 2 Este 4 Este 0 -- -- 92
2019-04-12 07:00:00 2.5 4 Nordeste 6 Este 0 -- -- 91
2019-04-12 06:00:00 3.5 5 Este 12 Este 0 -- -- 89
2019-04-12 05:00:00 4 4 Este 8 Este 0 -- -- 86
2019-04-12 04:00:00 4.8 6 Este 9 Este 0 -- -- 82
2019-04-12 03:00:00 5.8 3 Este 15 Este 0 -- -- 76
2019-04-12 02:00:00 6.3 8 Este 13 Sudeste 0 -- -- 75
2019-04-12 01:00:00 8.2 0 Calma 9 Sudoeste 0 -- -- 64
2019-04-12 00:00:00 9.6 6 Sur 12 Sur 0 -- -- 55
2019-04-11 23:00:00 9.9 7 Sur 12 Sudoeste 0 -- -- 54
2019-04-11 22:00:00 10.2 10 Sur 12 Sur 0 -- -- 56
2019-04-11 21:00:00 11.3 5 Sudeste 8 Sudeste 0 -- -- 53
2019-04-11 20:00:00 14.5 5 Noroeste 13 Oeste 0 -- -- 41
2019-04-11 19:00:00 15.9 4 Nordeste 13 Norte 0 -- -- 39
2019-04-11 18:00:00 15.7 3 Sudeste 21 Oeste 0 -- -- 40
2019-04-11 17:00:00 17.2 10 Noroeste 20 Oeste 0 -- -- 40
2019-04-11 16:00:00 14.7 5 Oeste 15 Noroeste 0 -- -- 43
2019-04-11 15:00:00 15.8 4 Noroeste 20 Norte 0 -- -- 42
2019-04-11 14:00:00 13 8 Noroeste 20 Oeste 0 -- -- 47
2019-04-11 13:00:00 11 5 Norte 11 Noroeste 0 -- -- 54
2019-04-11 12:00:00 11 5 Noroeste 12 Norte 0 -- -- 62
2019-04-11 11:00:00 8.9 4 Norte 8 Noroeste 0 -- -- 76
2019-04-11 10:00:00 6 2 Norte 4 Noroeste 0 -- -- 88
2019-04-11 09:00:00 4.6 2 Este 5 Sudeste 0 -- -- 93
2019-04-11 08:00:00 3 5 Este 8 Este 0 -- -- 93
2019-04-11 07:00:00 3.7 4 Sudeste 9 Sudeste 0 -- -- 90
2019-04-11 06:00:00 2.9 2 Sudeste 4 Noroeste 0 -- -- 89
2019-04-11 05:00:00 4.2 0 Calma 4 Este 0 -- -- 85
2019-04-11 04:00:00 4.1 3 Este 12 Nordeste 0 -- -- 84
2019-04-11 03:00:00 5.6 6 Este 12 Este 0 -- -- 77
2019-04-11 02:00:00 6.8 8 Nordeste 15 Nordeste 0 -- -- 73
2019-04-11 01:00:00 8.3 9 Este 20 Este 0 -- -- 70
2019-04-11 00:00:00 8.7 6 Este 19 Norte 0 -- -- 74
2019-04-10 23:00:00 9.6 10 Noroeste 19 Noroeste 0 -- -- 69
2019-04-10 22:00:00 10.1 7 Este 24 Oeste 0 -- -- 68
2019-04-10 21:00:00 11.4 15 Noroeste 29 Noroeste 0 -- -- 62
2019-04-10 20:00:00 15.1 13 Noroeste 45 Noroeste 0 -- -- 55
2019-04-10 19:00:00 13.6 30 Noroeste 47 Oeste 0 -- -- 57
2019-04-10 18:00:00 14 33 Noroeste 51 Oeste 0 -- -- 54
2019-04-10 17:00:00 13.5 26 Noroeste 46 Oeste 0 -- -- 56
2019-04-10 16:00:00 12.6 28 Oeste 38 Noroeste 0 -- -- 59
2019-04-10 15:00:00 11.8 27 Oeste 44 Oeste 0 -- -- 63
2019-04-10 14:00:00 11.7 28 Oeste 44 Oeste 0 -- -- 62
2019-04-10 13:00:00 10.6 25 Oeste 44 Oeste 0 -- -- 68
2019-04-10 12:00:00 10.2 22 Oeste 33 Oeste 0 -- -- 69
2019-04-10 11:00:00 8.9 22 Oeste 36 Oeste 0 -- -- 77
2019-04-10 10:00:00 6.8 8 Oeste 22 Oeste 0 -- -- 90
2019-04-10 09:00:00 5.6 9 Oeste 31 Oeste 0 -- -- 93
2019-04-10 08:00:00 4.9 21 Oeste 28 Oeste 0.6 -- -- 95
2019-04-10 07:00:00 5.5 19 Oeste 26 Oeste 0.2 -- -- 92
2019-04-10 06:00:00 5.8 18 Oeste 26 Oeste 0 -- -- 89
2019-04-10 05:00:00 6 17 Oeste 30 Sudoeste 0 -- -- 88
2019-04-10 04:00:00 6.2 19 Oeste 40 Oeste 0 -- -- 86
2019-04-10 03:00:00 6.2 22 Oeste 44 Oeste 0 -- -- 86
2019-04-10 02:00:00 5.8 20 Oeste 36 Oeste 0 -- -- 87
2019-04-10 01:00:00 6.2 25 Oeste 39 Oeste 0 -- -- 86
2019-04-10 00:00:00 6.1 24 Oeste 45 Oeste 0 -- -- 86
2019-04-09 23:00:00 6.3 27 Oeste 44 Oeste 0 -- -- 85
2019-04-09 22:00:00 6.4 19 Oeste 40 Oeste 0.2 -- -- 91
2019-04-09 21:00:00 7.4 24 Oeste 35 Oeste 0 -- -- 86
2019-04-09 20:00:00 8.4 21 Oeste 40 Oeste 0.2 -- -- 80
2019-04-09 19:00:00 8.6 24 Oeste 42 Oeste 0.2 -- -- 80
2019-04-09 18:00:00 10.4 21 Oeste 38 Noroeste 0 -- -- 71
2019-04-09 17:00:00 7.9 23 Oeste 48 Oeste 0.2 -- -- 85
2019-04-09 16:00:00 8.4 20 Oeste 51 Oeste 0.6 -- -- 88
2019-04-09 15:00:00 11.2 28 Oeste 41 Oeste 0 -- -- 62
2019-04-09 14:00:00 9.2 24 Oeste 38 Oeste 0 -- -- 65
2019-04-09 13:00:00 9 20 Oeste 32 Oeste 0 -- -- 78
2019-04-09 12:00:00 6.7 21 Oeste 33 Oeste 0 -- -- 88
2019-04-09 11:00:00 4.9 16 Sudoeste 51 Oeste 1.8 -- -- 93
2019-04-09 10:00:00 4.9 26 Sudoeste 46 Oeste 1.4 -- -- 92
2019-04-09 09:00:00 5.6 22 Sudoeste 38 Sudoeste 0.2 -- -- 93
2019-04-09 08:00:00 5.4 17 Sudoeste 31 Sudoeste 0.8 -- -- 94
2019-04-09 07:00:00 5.6 19 Sudoeste 39 Sudoeste 0.4 -- -- 94
2019-04-09 06:00:00 5.6 18 Sudoeste 33 Sudoeste 0.4 -- -- 94
2019-04-09 05:00:00 5.6 19 Sudoeste 31 Sudoeste 0.2 -- -- 91
2019-04-09 04:00:00 6 19 Sudoeste 30 Sudoeste 0 -- -- 90
2019-04-09 03:00:00 6.1 18 Sudoeste 34 Sudoeste 0 -- -- 89
2019-04-09 02:00:00 5.7 14 Sudoeste 26 Sudoeste 0 -- -- 91
2019-04-09 01:00:00 5.8 12 Sudoeste 27 Sudoeste 0 -- -- 87
2019-04-09 00:00:00 6.6 18 Sudoeste 27 Sudoeste 0 -- -- 83
2019-04-08 23:00:00 6.8 13 Sudoeste 32 Sudoeste 0 -- -- 83
2019-04-08 22:00:00 7.3 16 Sudoeste 26 Sudoeste 0 -- -- 82
2019-04-08 21:00:00 8.2 10 Oeste 27 Sudoeste 0 -- -- 81
2019-04-08 20:00:00 9.2 12 Sudoeste 20 Sudoeste 0 -- -- 78
2019-04-08 19:00:00 9.2 10 Sudoeste 41 Oeste 1.4 -- -- 79
2019-04-08 18:00:00 10.5 14 Sudoeste 27 Sur 0.2 -- -- 71
2019-04-08 17:00:00 7.4 21 Sudoeste 48 Sudoeste 0.6 -- -- 88
2019-04-08 16:00:00 12.9 13 Oeste 27 Sudoeste 0 -- -- 60
2019-04-08 15:00:00 10.5 15 Oeste 35 Sudoeste 1.2 -- -- 74
2019-04-08 14:00:00 10.1 17 Oeste 33 Oeste 0 -- -- 74
2019-04-08 13:00:00 8.6 22 Oeste 32 Oeste 0.2 -- -- 78
2019-04-08 12:00:00 8.7 12 Oeste 29 Oeste 0 -- -- 77
2019-04-08 11:00:00 9.3 19 Oeste 30 Oeste 0 -- -- 76
2019-04-08 10:00:00 8 14 Oeste 24 Oeste 0 -- -- 91
2019-04-08 09:00:00 6.9 13 Sudoeste 23 Sudoeste 0 -- -- 93
2019-04-08 08:00:00 6.6 14 Sudoeste 25 Sudoeste 0 -- -- 93
2019-04-08 07:00:00 7.1 16 Sudoeste 41 Oeste 0 -- -- 92
2019-04-08 06:00:00 7.8 20 Oeste 36 Oeste 0 -- -- 93
2019-04-08 05:00:00 7.9 20 Sudoeste 35 Oeste 0 -- -- 94
2019-04-08 04:00:00 8.3 23 Sudoeste 38 Sudoeste 0.8 -- -- 96
2019-04-08 03:00:00 8.4 18 Sudoeste 34 Sudoeste 0.4 -- -- 94
2019-04-08 02:00:00 8.4 17 Sudoeste 33 Sudoeste 0 -- -- 91
2019-04-08 01:00:00 8.7 15 Sudoeste 32 Sudoeste 0 -- -- 92
2019-04-08 00:00:00 8.8 21 Sudoeste 35 Sudoeste 0 -- -- 92
2019-04-07 23:00:00 8.9 17 Sudoeste 37 Sudoeste 0.2 -- -- 94
2019-04-07 22:00:00 8.9 21 Sudoeste 36 Sudoeste 0.4 -- -- 95
2019-04-07 21:00:00 8.7 23 Sudoeste 36 Sudoeste 0.2 -- -- 95
2019-04-07 20:00:00 8.2 13 Sur 23 Sur 1 -- -- 95
2019-04-07 19:00:00 7.8 14 Sur 27 Sur 0.6 -- -- 94
2019-04-07 18:00:00 7.6 9 Sur 19 Sudoeste 0.8 -- -- 90
2019-04-07 17:00:00 7.8 13 Sudoeste 19 Sur 0.8 -- -- 88
2019-04-07 16:00:00 7.7 5 Oeste 20 Sudoeste 0.8 -- -- 87
2019-04-07 15:00:00 8.6 13 Oeste 21 Sudoeste 0.2 -- -- 75
2019-04-07 14:00:00 7.6 13 Sudoeste 26 Sudoeste 0 -- -- 80
2019-04-07 13:00:00 8 12 Sudoeste 23 Sudoeste 0 -- -- 78
2019-04-07 12:00:00 7.2 11 Sudoeste 21 Sudoeste 0 -- -- 79
2019-04-07 11:00:00 6.4 11 Sudoeste 26 Sudoeste 0 -- -- 83
2019-04-07 10:00:00 5.5 15 Oeste 28 Sudoeste 0 -- -- 87
2019-04-07 09:00:00 3.9 14 Sudoeste 23 Sudoeste 0 -- -- 91
2019-04-07 08:00:00 3.4 14 Sudoeste 23 Sudoeste 0 -- -- 92
2019-04-07 07:00:00 3.3 12 Sudoeste 21 Oeste 0 -- -- 91
2019-04-07 06:00:00 3.3 11 Sudoeste 22 Sudoeste 0 -- -- 93
2019-04-07 05:00:00 3.4 13 Sudoeste 22 Sudoeste 0 -- -- 92
2019-04-07 04:00:00 3 15 Sudoeste 28 Sudoeste 0 -- -- 94
2019-04-07 03:00:00 3.2 15 Oeste 31 Oeste 0.2 -- -- 93
2019-04-07 02:00:00 3.8 20 Oeste 39 Oeste 0.4 -- -- 93
2019-04-07 01:00:00 4 20 Oeste 30 Sudoeste 0 -- -- 93
2019-04-07 00:00:00 4 15 Sudoeste 28 Oeste 0.6 -- -- 93
2019-04-06 23:00:00 4.1 16 Oeste 33 Oeste 0.2 -- -- 89
2019-04-06 22:00:00 4.9 22 Oeste 37 Oeste 0 -- -- 83
2019-04-06 21:00:00 5.1 22 Oeste 50 Oeste 0 -- -- 77
2019-04-06 20:00:00 7.3 22 Oeste 41 Oeste 0 -- -- 72
2019-04-06 19:00:00 7.5 30 Oeste 43 Oeste 0 -- -- 72
2019-04-06 18:00:00 7.9 28 Oeste 44 Oeste 0.2 -- -- 70
2019-04-06 17:00:00 6.3 33 Oeste 55 Oeste 0.2 -- -- 81
2019-04-06 16:00:00 7.6 30 Oeste 44 Oeste 0.2 -- -- 81
2019-04-06 15:00:00 4.1 30 Oeste 53 Oeste 1.8 -- -- 93
2019-04-06 14:00:00 4.8 31 Oeste 54 Sudoeste 0.6 -- -- 89
2019-04-06 13:00:00 5.1 26 Sudoeste 48 Sudoeste 0.2 -- -- 91
2019-04-06 12:00:00 3.6 29 Sudoeste 50 Sudoeste 1 -- -- 92
2019-04-06 11:00:00 1.5 25 Sudoeste 47 Sudoeste 1.6 -- -- 95
2019-04-06 10:00:00 2.3 28 Sudoeste 47 Sudoeste 2 -- -- 93
2019-04-06 09:00:00 2.4 24 Sudoeste 41 Sudoeste 0.2 -- -- 94
2019-04-06 08:00:00 2.2 24 Sudoeste 39 Sudoeste 0.2 -- -- 93
2019-04-06 07:00:00 3.5 21 Sudoeste 37 Sudoeste 0 -- -- 92
2019-04-06 06:00:00 3.4 23 Sudoeste 41 Sudoeste 0.2 -- -- 92
2019-04-06 05:00:00 3.6 22 Sudoeste 35 Sudoeste 0.2 -- -- 93
2019-04-06 04:00:00 3.2 15 Sudoeste 27 Sudoeste 0 -- -- 93
2019-04-06 03:00:00 2.9 15 Sur 25 Sudoeste 0 -- -- 92
2019-04-06 02:00:00 3.5 18 Sudoeste 29 Sudoeste 0 -- -- 90
2019-04-06 01:00:00 3.6 15 Sudoeste 27 Sudoeste 0 -- -- 92
2019-04-06 00:00:00 3.3 14 Sudoeste 25 Sudoeste 0 -- -- 91
2019-04-05 23:00:00 3.3 17 Sudoeste 27 Sudoeste 0 -- -- 91
2019-04-05 22:00:00 3.1 15 Sudoeste 29 Oeste 0.2 -- -- 92
2019-04-05 21:00:00 2.9 17 Sudoeste 37 Sudoeste 3 -- -- 93
2019-04-05 20:00:00 4 17 Sur 27 Sur 0.4 -- -- 91
2019-04-05 19:00:00 5.4 10 Sudoeste 20 Oeste 0.2 -- -- 85
2019-04-05 18:00:00 4.2 12 Oeste 44 Oeste 1.2 -- -- 93
2019-04-05 17:00:00 9.3 19 Oeste 32 Oeste 0 -- -- 52
2019-04-05 16:00:00 9.6 13 Oeste 40 Sudoeste 0 -- -- 55
2019-04-05 15:00:00 8.7 14 Oeste 37 Oeste 0 -- -- 59
2019-04-05 14:00:00 6.7 15 Oeste 27 Oeste 0 -- -- 67
2019-04-05 13:00:00 5.9 17 Oeste 27 Oeste 0 -- -- 74
2019-04-05 12:00:00 4.9 19 Oeste 28 Oeste 0 -- -- 78
2019-04-05 11:00:00 4.2 14 Oeste 24 Oeste 0 -- -- 86
2019-04-05 10:00:00 3.8 13 Sudoeste 22 Sudoeste 0 -- -- 89
2019-04-05 09:00:00 3.1 9 Sudoeste 18 Sudoeste 0 -- -- 92
2019-04-05 08:00:00 2.6 12 Sudoeste 28 Sudoeste 0 -- -- 90
2019-04-05 07:00:00 2.4 16 Sudoeste 27 Sudoeste 0 -- -- 89
2019-04-05 06:00:00 3.3 14 Oeste 33 Oeste 0 -- -- 90
2019-04-05 05:00:00 3.6 17 Sudoeste 40 Oeste 2 -- -- 93
2019-04-05 04:00:00 4.7 19 Sudoeste 33 Sudoeste 0.6 -- -- 95
2019-04-05 03:00:00 4.6 22 Sudoeste 39 Sudoeste 0.2 -- -- 94
2019-04-05 02:00:00 4.3 18 Sudoeste 37 Sur 1.4 -- -- 94
2019-04-05 01:00:00 4.1 20 Sur 37 Sudoeste 0.8 -- -- 93
2019-04-05 00:00:00 4.3 19 Sur 33 Sur 0.2 -- -- 91
2019-04-04 23:00:00 4.4 14 Sur 23 Sur 0 -- -- 90
2019-04-04 22:00:00 4.3 10 Sudoeste 24 Sudoeste 0.2 -- -- 91
2019-04-04 21:00:00 4.4 12 Sudoeste 24 Sudoeste 0.8 -- -- 90
2019-04-04 20:00:00 5.2 14 Oeste 27 Oeste 0.6 -- -- 85
2019-04-04 19:00:00 6.1 13 Oeste 25 Oeste 0 -- -- 81
2019-04-04 18:00:00 7.3 18 Oeste 37 Sudoeste 0 -- -- 66
2019-04-04 17:00:00 9.3 24 Oeste 39 Oeste 0 -- -- 53
2019-04-04 16:00:00 9.8 21 Oeste 37 Oeste 0 -- -- 47
2019-04-04 15:00:00 9.5 17 Sudoeste 31 Sudoeste 0 -- -- 49
2019-04-04 14:00:00 8.7 19 Oeste 31 Oeste 0 -- -- 48
2019-04-04 13:00:00 8.4 14 Oeste 26 Oeste 0 -- -- 52
2019-04-04 12:00:00 7.2 9 Oeste 20 Oeste 0 -- -- 55
2019-04-04 11:00:00 4.6 11 Oeste 19 Oeste 0 -- -- 67
2019-04-04 10:00:00 3.8 9 Oeste 17 Sudoeste 0 -- -- 70
2019-04-04 09:00:00 1.4 8 Sudoeste 16 Oeste 0 -- -- 78
2019-04-04 08:00:00 0.6 10 Oeste 21 Oeste 0 -- -- 81
2019-04-04 07:00:00 0.9 12 Oeste 20 Oeste 0 -- -- 77
2019-04-04 06:00:00 -0.1 6 Oeste 12 Noroeste 0 -- -- 78
2019-04-04 05:00:00 1.1 8 Noroeste 28 Noroeste 0 -- -- 71
2019-04-04 04:00:00 1.8 6 Noroeste 31 Noroeste 0 -- -- 67
2019-04-04 03:00:00 2 7 Oeste 17 Oeste 0 -- -- 67
2019-04-04 02:00:00 2.7 11 Oeste 22 Oeste 0 -- -- 66
2019-04-04 01:00:00 3.2 10 Noroeste 36 Noroeste 0 -- -- 64
2019-04-04 00:00:00 3.9 22 Noroeste 33 Noroeste 0 -- -- 59
2019-04-03 23:00:00 4.7 17 Noroeste 29 Norte 0 -- -- 55
2019-04-03 22:00:00 5.3 12 Noroeste 31 Noroeste 0 -- -- 54
2019-04-03 21:00:00 6.6 20 Noroeste 41 Noroeste 0 -- -- 46
2019-04-03 20:00:00 8.9 21 Noroeste 37 Noroeste 0 -- -- 46
2019-04-03 19:00:00 9.4 22 Noroeste 45 Oeste 0 -- -- 41
2019-04-03 18:00:00 10.5 19 Noroeste 45 Noroeste 0 -- -- 44
2019-04-03 17:00:00 11.1 24 Noroeste 44 Oeste 0 -- -- 42
2019-04-03 16:00:00 11.7 25 Noroeste 51 Noroeste 0 -- -- 41
2019-04-03 15:00:00 11.8 27 Noroeste 51 Noroeste 0 -- -- 39
2019-04-03 14:00:00 11.5 26 Noroeste 49 Noroeste 0 -- -- 40
2019-04-03 13:00:00 10.7 23 Noroeste 42 Noroeste 0 -- -- 44
2019-04-03 12:00:00 8.1 21 Noroeste 34 Noroeste 0 -- -- 58
2019-04-03 11:00:00 7.8 15 Noroeste 31 Oeste 0 -- -- 59
2019-04-03 10:00:00 5.2 21 Oeste 30 Oeste 0 -- -- 71
2019-04-03 09:00:00 3.8 21 Oeste 33 Oeste 0 -- -- 78
2019-04-03 08:00:00 3.7 16 Oeste 35 Oeste 0 -- -- 80
2019-04-03 07:00:00 4.3 21 Oeste 37 Sudoeste 0 -- -- 77
2019-04-03 06:00:00 4.9 19 Oeste 28 Oeste 0 -- -- 76
2019-04-03 05:00:00 5.4 12 Oeste 21 Oeste 0 -- -- 76
2019-04-03 04:00:00 6.1 13 Oeste 23 Noroeste 0 -- -- 77
2019-04-03 03:00:00 7.6 16 Oeste 23 Oeste 0 -- -- 74
2019-04-03 02:00:00 8.2 10 Oeste 18 Oeste 0 -- -- 72
2019-04-03 01:00:00 9.6 13 Oeste 22 Noroeste 0 -- -- 64
2019-04-03 00:00:00 10.2 14 Oeste 23 Oeste 0 -- -- 60
2019-04-02 23:00:00 11 12 Oeste 24 Oeste 0 -- -- 53
2019-04-02 22:00:00 12.5 13 Noroeste 24 Oeste 0 -- -- 46
2019-04-02 21:00:00 13.7 14 Noroeste 27 Noroeste 0 -- -- 41
2019-04-02 20:00:00 16.7 15 Noroeste 34 Oeste 0 -- -- 32
2019-04-02 19:00:00 17.6 24 Oeste 41 Oeste 0 -- -- 27
2019-04-02 18:00:00 17.8 25 Oeste 38 Oeste 0 -- -- 27
2019-04-02 17:00:00 18.7 19 Oeste 32 Oeste 0 -- -- 35
2019-04-02 16:00:00 17.7 15 Oeste 32 Oeste 0 -- -- 41
2019-04-02 15:00:00 16.9 16 Oeste 30 Oeste 0 -- -- 44
2019-04-02 14:00:00 15.8 14 Oeste 26 Oeste 0 -- -- 50
2019-04-02 13:00:00 14.5 13 Oeste 23 Oeste 0 -- -- 57
2019-04-02 12:00:00 13.1 11 Oeste 21 Oeste 0 -- -- 62
2019-04-02 11:00:00 11.6 8 Oeste 21 Oeste 0 -- -- 68
2019-04-02 10:00:00 9.7 8 Oeste 13 Oeste 0 -- -- 78
2019-04-02 09:00:00 8.4 8 Oeste 17 Oeste 0 -- -- 79
2019-04-02 08:00:00 8.6 14 Oeste 22 Oeste 0 -- -- 78
2019-04-02 07:00:00 8.4 10 Oeste 21 Sudoeste 0 -- -- 83
2019-04-02 06:00:00 8.9 14 Sudoeste 20 Sudoeste 0 -- -- 81
2019-04-02 05:00:00 8.5 11 Sudoeste 20 Sudoeste 0 -- -- 83
2019-04-02 04:00:00 8.6 12 Sudoeste 17 Sudoeste 0 -- -- 82
2019-04-02 03:00:00 9.7 14 Sudoeste 23 Sudoeste 0 -- -- 77
2019-04-02 02:00:00 9.9 15 Sudoeste 22 Oeste 0 -- -- 78
2019-04-02 01:00:00 10.1 14 Sudoeste 21 Sudoeste 0 -- -- 76
2019-04-02 00:00:00 10.1 13 Sudoeste 21 Sudoeste 0 -- -- 73
2019-04-01 23:00:00 9.4 9 Sudoeste 18 Noroeste 0.4 -- -- 77
2019-04-01 22:00:00 9.7 17 Sudoeste 27 Sudoeste 0 -- -- 78
2019-04-01 21:00:00 10 21 Sur 38 Sudoeste 1.2 -- -- 73
2019-04-01 20:00:00 10.6 23 Oeste 32 Oeste 2.2 -- -- 77
2019-04-01 19:00:00 14.9 19 Noroeste 30 Noroeste 0 -- -- 47
2019-04-01 18:00:00 17.4 9 Sudoeste 29 Sur 0 -- -- 39
2019-04-01 17:00:00 19.9 7 Sur 17 Sudoeste 0 -- -- 36
2019-04-01 16:00:00 17.8 6 Nordeste 17 Norte 0 -- -- 43
2019-04-01 15:00:00 17.2 7 Noroeste 18 Noroeste 0 -- -- 46
2019-04-01 14:00:00 17.2 6 Noroeste 17 Nordeste 0 -- -- 49
2019-04-01 13:00:00 16.1 6 Este 17 Nordeste 0 -- -- 51
2019-04-01 12:00:00 14.5 10 Este 20 Nordeste 0 -- -- 58
2019-04-01 11:00:00 10.7 8 Este 14 Este 0 -- -- 69
2019-04-01 10:00:00 7.6 9 Este 14 Este 0 -- -- 78
2019-04-01 09:00:00 4.9 10 Este 14 Este 0 -- -- 90
2019-04-01 08:00:00 4.5 7 Este 10 Este 0 -- -- 90
2019-04-01 07:00:00 5.5 7 Este 14 Este 0 -- -- 87
2019-04-01 06:00:00 6 9 Sudeste 15 Sudeste 0 -- -- 86
2019-04-01 05:00:00 6.4 10 Sudeste 15 Sudeste 0 -- -- 83
2019-04-01 04:00:00 7.3 10 Sudeste 22 Sudeste 0 -- -- 77
2019-04-01 03:00:00 9.4 7 Sudeste 13 Este 0 -- -- 69
2019-04-01 02:00:00 9.7 6 Este 12 Este 0 -- -- 68
2019-04-01 01:00:00 9.3 8 Este 18 Este 0 -- -- 67
2019-04-01 00:00:00 10.6 10 Sudeste 21 Este 0 -- -- 58
2019-03-31 23:00:00 11.5 9 Este 19 Este 0 -- -- 50
2019-03-31 22:00:00 13.6 13 Este 30 Este 0 -- -- 43
2019-03-31 21:00:00 14.2 9 Este 19 Este 0 -- -- 39
2019-03-31 20:00:00 17.3 15 Este 26 Este 0 -- -- 33
2019-03-31 19:00:00 21.2 5 Este 24 Norte 0 -- -- 25
2019-03-31 18:00:00 22 5 Este 23 Este 0 -- -- 25
2019-03-31 17:00:00 19.7 13 Este 32 Este 0 -- -- 30
2019-03-31 16:00:00 20.8 14 Nordeste 39 Este 0 -- -- 27
2019-03-31 15:00:00 19.9 13 Este 27 Este 0 -- -- 34
2019-03-31 14:00:00 18 14 Este 25 Nordeste 0 -- -- 38
2019-03-31 13:00:00 16.5 12 Nordeste 25 Nordeste 0 -- -- 39
2019-03-31 12:00:00 14.1 13 Este 23 Este 0 -- -- 44
2019-03-31 11:00:00 11.5 14 Nordeste 26 Este 0 -- -- 49
2019-03-31 10:00:00 8.7 12 Este 22 Este 0 -- -- 59
2019-03-31 09:00:00 6.4 7 Este 14 Nordeste 0 -- -- 69
2019-03-31 08:00:00 6.5 6 Este 14 Nordeste 0 -- -- 70
2019-03-31 07:00:00 6.2 11 Este 15 Este 0 -- -- 70
2019-03-31 06:00:00 7 6 Este 11 Nordeste 0 -- -- 66
2019-03-31 05:00:00 7.2 3 Nordeste 6 Nordeste 0 -- -- 62
2019-03-31 03:00:00 9.9 9 Sudeste 11 Este 0 -- -- 50
2019-03-31 01:00:00 10.6 2 Este 7 Nordeste 0 -- -- 49
2019-03-31 00:00:00 11.3 8 Sur 15 Sur 0 -- -- 49
2019-03-30 23:00:00 11.2 4 Este 6 Nordeste 0 -- -- 48
2019-03-30 22:00:00 12.1 3 Norte 7 Nordeste 0 -- -- 44
2019-03-30 21:00:00 13 3 Nordeste 6 Nordeste 0 -- -- 40
2019-03-30 20:00:00 14.1 3 Noroeste 9 Norte 0 -- -- 35
2019-03-30 19:00:00 14.9 4 Oeste 5 Oeste 0 -- -- 33
2019-03-30 18:00:00 17.7 3 Oeste 5 Oeste 0 -- -- 31
2019-03-30 17:00:00 17.9 0 Calma 9 Este 0 -- -- 36
2019-03-30 16:00:00 18.4 4 Este 14 Norte 0 -- -- 28
2019-03-30 15:00:00 17.8 5 Sur 27 Sudoeste 0 -- -- 31
2019-03-30 14:00:00 19.4 8 Noroeste 17 Oeste 0 -- -- 30
2019-03-30 13:00:00 18.7 13 Noroeste 17 Noroeste 0 -- -- 32
2019-03-30 12:00:00 16.3 8 Noroeste 13 Noroeste 0 -- -- 39
2019-03-30 11:00:00 13.3 4 Noroeste 8 Noroeste 0 -- -- 48
2019-03-30 10:00:00 9.7 2 Norte 6 Nordeste 0 -- -- 51
2019-03-30 09:00:00 7.2 0 Calma 3 Noroeste 0 -- -- 55
2019-03-30 08:00:00 5.9 0 Calma 8 Sur 0 -- -- 55
2019-03-30 07:00:00 6.9 3 Sur 5 Sur 0 -- -- 50
2019-03-30 06:00:00 6.1 3 Oeste 10 Sudoeste 0 -- -- 54
2019-03-30 05:00:00 6.4 0 Calma 6 Oeste 0 -- -- 52
2019-03-30 04:00:00 7.2 2 Norte 19 Sudoeste 0 -- -- 50
2019-03-30 03:00:00 8.9 13 Sudoeste 27 Sur 0 -- -- 45
2019-03-30 02:00:00 8.8 21 Sur 26 Sur 0 -- -- 47
2019-03-30 01:00:00 9.1 19 Sur 24 Sur 0 -- -- 47
2019-03-30 00:00:00 9.9 18 Sur 28 Sur 0 -- -- 46
2019-03-29 23:00:00 10.3 20 Sur 27 Sur 0 -- -- 45
2019-03-29 22:00:00 12.3 9 Sur 13 Sur 0 -- -- 34
2019-03-29 21:00:00 12.7 10 Sur 12 Sur 0 -- -- 34
2019-03-29 20:00:00 14.2 5 Sudoeste 10 Oeste 0 -- -- 33
2019-03-29 19:00:00 18.9 6 Oeste 12 Noroeste 0 -- -- 26
2019-03-29 18:00:00 19.9 8 Noroeste 17 Oeste 0 -- -- 25
2019-03-29 17:00:00 20.6 9 Noroeste 19 Oeste 0 -- -- 25
2019-03-29 16:00:00 20 6 Noroeste 25 Oeste 0 -- -- 25
2019-03-29 15:00:00 18.9 11 Sudoeste 30 Oeste 0 -- -- 27
2019-03-29 14:00:00 18.8 9 Oeste 23 Oeste 0 -- -- 30
2019-03-29 13:00:00 16.8 15 Oeste 22 Oeste 0 -- -- 37
2019-03-29 12:00:00 15.5 7 Noroeste 13 Noroeste 0 -- -- 42
2019-03-29 11:00:00 13 4 Nordeste 10 Nordeste 0 -- -- 49
2019-03-29 10:00:00 9.9 6 Nordeste 12 Este 0 -- -- 57
2019-03-29 09:00:00 6.9 8 Este 16 Sudeste 0 -- -- 64
2019-03-29 08:00:00 4.4 13 Sudeste 18 Este 0 -- -- 72
2019-03-29 07:00:00 3 9 Este 13 Este 0 -- -- 78
2019-03-29 06:00:00 3.8 6 Este 11 Este 0 -- -- 77
2019-03-29 05:00:00 4.7 7 Este 9 Nordeste 0 -- -- 74
2019-03-29 04:00:00 5 5 Nordeste 12 Nordeste 0 -- -- 72
2019-03-29 03:00:00 6.1 9 Nordeste 14 Nordeste 0 -- -- 68
2019-03-29 02:00:00 6.8 8 Nordeste 13 Nordeste 0 -- -- 64
2019-03-29 01:00:00 8.2 6 Nordeste 16 Este 0 -- -- 59
2019-03-29 00:00:00 9.2 12 Este 22 Este 0 -- -- 54
2019-03-28 23:00:00 9.8 4 Nordeste 14 Norte 0 -- -- 49
2019-03-28 22:00:00 10.8 3 Este 10 Este 0 -- -- 44
2019-03-28 21:00:00 12 9 Este 13 Este 0 -- -- 43
2019-03-28 20:00:00 13.6 9 Este 21 Nordeste 0 -- -- 41
2019-03-28 19:00:00 17.9 10 Nordeste 22 Este 0 -- -- 31
2019-03-28 18:00:00 19.1 16 Este 24 Nordeste 0 -- -- 26
2019-03-28 17:00:00 18.8 14 Nordeste 23 Nordeste 0 -- -- 29
2019-03-28 16:00:00 18.6 14 Este 26 Este 0 -- -- 31
2019-03-28 15:00:00 18.1 15 Este 29 Este 0 -- -- 29
2019-03-28 14:00:00 17.5 14 Nordeste 31 Este 0 -- -- 30
2019-03-28 13:00:00 15.8 14 Este 28 Este 0 -- -- 36
2019-03-28 12:00:00 13.9 13 Este 27 Este 0 -- -- 42
2019-03-28 11:00:00 11.3 18 Este 27 Este 0 -- -- 46
2019-03-28 10:00:00 9 15 Este 32 Este 0 -- -- 52
2019-03-28 09:00:00 5.6 15 Este 26 Este 0 -- -- 57
2019-03-28 08:00:00 3.1 13 Este 24 Este 0 -- -- 62
2019-03-28 07:00:00 2.8 19 Este 25 Este 0 -- -- 61
2019-03-28 06:00:00 3.9 18 Este 27 Este 0 -- -- 56
2019-03-28 05:00:00 4.2 13 Este 28 Nordeste 0 -- -- 53
2019-03-28 04:00:00 4.9 15 Nordeste 32 Nordeste 0 -- -- 49
2019-03-28 03:00:00 5.5 11 Nordeste 25 Este 0 -- -- 47
2019-03-28 02:00:00 7.3 15 Este 37 Este 0 -- -- 44
2019-03-28 01:00:00 8.7 20 Este 40 Este 0 -- -- 38
2019-03-28 00:00:00 9.7 23 Este 41 Este 0 -- -- 38
2019-03-27 23:00:00 11 24 Este 46 Este 0 -- -- 38
2019-03-27 22:00:00 12.4 22 Este 43 Este 0 -- -- 36
2019-03-27 21:00:00 13.4 20 Este 32 Este 0 -- -- 27
2019-03-27 20:00:00 14.9 17 Nordeste 32 Nordeste 0 -- -- 25
2019-03-27 19:00:00 18.5 22 Nordeste 35 Este 0 -- -- 20
2019-03-27 18:00:00 20.2 17 Este 39 Nordeste 0 -- -- 19
2019-03-27 17:00:00 19.6 19 Nordeste 32 Nordeste 0 -- -- 23
2019-03-27 16:00:00 19.6 18 Este 33 Nordeste 0 -- -- 24
2019-03-27 15:00:00 18.2 18 Nordeste 33 Nordeste 0 -- -- 25
2019-03-27 14:00:00 17.6 17 Este 30 Nordeste 0 -- -- 27
2019-03-27 13:00:00 15.3 15 Nordeste 30 Nordeste 0 -- -- 35
2019-03-27 12:00:00 14.1 15 Este 24 Nordeste 0 -- -- 35
2019-03-27 11:00:00 11.8 15 Este 25 Nordeste 0 -- -- 40
2019-03-27 10:00:00 8.9 15 Este 28 Este 0 -- -- 48
2019-03-27 09:00:00 5.4 15 Nordeste 26 Nordeste 0 -- -- 61
2019-03-27 08:00:00 2.6 12 Nordeste 20 Nordeste 0 -- -- 69
2019-03-27 07:00:00 2.4 9 Nordeste 25 Nordeste 0 -- -- 67
2019-03-27 06:00:00 2.8 10 Nordeste 24 Nordeste 0 -- -- 63
2019-03-27 05:00:00 3.5 17 Nordeste 33 Nordeste 0 -- -- 57
2019-03-27 04:00:00 3.7 9 Nordeste 36 Nordeste 0 -- -- 54
2019-03-27 03:00:00 4.1 18 Nordeste 28 Nordeste 0 -- -- 48
2019-03-27 02:00:00 4.7 16 Nordeste 32 Este 0 -- -- 43
2019-03-27 01:00:00 5.8 18 Nordeste 32 Nordeste 0 -- -- 38
2019-03-27 00:00:00 6.9 13 Nordeste 32 Nordeste 0 -- -- 34
2019-03-26 23:00:00 8.8 18 Nordeste 37 Nordeste 0 -- -- 31
2019-03-26 22:00:00 10.2 21 Nordeste 42 Nordeste 0 -- -- 31
2019-03-26 21:00:00 11.9 21 Nordeste 40 Nordeste 0 -- -- 28
2019-03-26 20:00:00 13.9 23 Nordeste 45 Nordeste 0 -- -- 25
2019-03-26 19:00:00 17.2 27 Nordeste 45 Nordeste 0 -- -- 24
2019-03-26 18:00:00 18.9 29 Este 53 Nordeste 0 -- -- 23
2019-03-26 17:00:00 19 29 Este 48 Este 0 -- -- 24
2019-03-26 16:00:00 18.5 30 Este 46 Este 0 -- -- 25
2019-03-26 15:00:00 17.4 29 Este 46 Este 0 -- -- 28
2019-03-26 14:00:00 16.2 24 Nordeste 50 Este 0 -- -- 31
2019-03-26 13:00:00 13.7 27 Nordeste 48 Nordeste 0 -- -- 36
2019-03-26 12:00:00 11.3 30 Nordeste 51 Nordeste 0 -- -- 45
2019-03-26 11:00:00 9.7 28 Nordeste 44 Nordeste 0 -- -- 52
2019-03-26 10:00:00 7.8 27 Este 41 Nordeste 0 -- -- 61
2019-03-26 09:00:00 5.5 24 Este 40 Este 0 -- -- 71
2019-03-26 08:00:00 3.7 24 Este 39 Nordeste 0 -- -- 79
2019-03-26 07:00:00 3.1 17 Nordeste 42 Este 0 -- -- 79
2019-03-26 06:00:00 3.2 24 Nordeste 51 Este 0 -- -- 77
2019-03-26 05:00:00 3.4 23 Este 45 Este 0 -- -- 75
2019-03-26 04:00:00 3.6 25 Este 48 Este 0 -- -- 72
2019-03-26 03:00:00 3.8 20 Este 41 Nordeste 0 -- -- 72
2019-03-26 02:00:00 4.6 26 Nordeste 47 Nordeste 0 -- -- 69
2019-03-26 01:00:00 5.5 19 Nordeste 41 Nordeste 0 -- -- 65
2019-03-26 00:00:00 6.8 26 Este 43 Este 0 -- -- 59
2019-03-25 23:00:00 8.1 26 Este 49 Nordeste 0 -- -- 57
2019-03-25 22:00:00 9.3 16 Este 38 Este 0 -- -- 54
2019-03-25 21:00:00 10.7 15 Este 37 Nordeste 0 -- -- 50
2019-03-25 20:00:00 12.4 22 Este 41 Este 0 -- -- 46
2019-03-25 19:00:00 15.7 21 Este 37 Nordeste 0 -- -- 38
2019-03-25 18:00:00 17.2 26 Nordeste 41 Nordeste 0 -- -- 30
2019-03-25 17:00:00 18 28 Nordeste 42 Nordeste 0 -- -- 30
2019-03-25 16:00:00 18.2 25 Nordeste 41 Nordeste 0 -- -- 29
2019-03-25 15:00:00 18.1 27 Este 40 Nordeste 0 -- -- 30
2019-03-25 14:00:00 18.4 21 Este 40 Nordeste 0 -- -- 35
2019-03-25 13:00:00 16.7 22 Este 36 Nordeste 0 -- -- 43
2019-03-25 12:00:00 14.8 22 Este 32 Este 0 -- -- 51
2019-03-25 11:00:00 13 18 Nordeste 31 Nordeste 0 -- -- 55
2019-03-25 10:00:00 10.2 20 Nordeste 34 Este 0 -- -- 61
2019-03-25 09:00:00 8.3 21 Este 34 Este 0 -- -- 65
2019-03-25 08:00:00 6.3 8 Este 18 Nordeste 0 -- -- 74
2019-03-25 07:00:00 5.9 11 Este 20 Nordeste 0 -- -- 76
2019-03-25 06:00:00 6.1 9 Este 15 Este 0 -- -- 79
2019-03-25 05:00:00 6.5 9 Nordeste 15 Este 0 -- -- 81
2019-03-25 04:00:00 7.1 8 Este 27 Este 0 -- -- 79
2019-03-25 03:00:00 8.7 13 Este 26 Nordeste 0 -- -- 72
2019-03-25 02:00:00 9.5 17 Nordeste 25 Nordeste 0 -- -- 71
2019-03-25 01:00:00 9.9 5 Este 22 Este 0 -- -- 64
2019-03-25 00:00:00 11.2 5 Nordeste 31 Nordeste 0 -- -- 51
2019-03-24 23:00:00 13.4 12 Este 28 Nordeste 0 -- -- 42
2019-03-24 22:00:00 14.5 8 Nordeste 15 Nordeste 0 -- -- 36
2019-03-24 21:00:00 15.2 8 Este 21 Este 0 -- -- 36
2019-03-24 20:00:00 16 8 Este 16 Nordeste 0 -- -- 33
2019-03-24 19:00:00 19.9 15 Este 30 Este 0 -- -- 26
2019-03-24 18:00:00 21.4 16 Este 31 Nordeste 0 -- -- 24
2019-03-24 17:00:00 21.6 15 Este 35 Este 0 -- -- 28
2019-03-24 16:00:00 21.1 22 Este 36 Nordeste 0 -- -- 29
2019-03-24 15:00:00 20.2 23 Este 35 Este 0 -- -- 33
2019-03-24 14:00:00 19.4 20 Este 37 Este 0 -- -- 37
2019-03-24 13:00:00 18.8 19 Este 33 Este 0 -- -- 37
2019-03-24 12:00:00 16.9 15 Este 25 Nordeste 0 -- -- 43
2019-03-24 11:00:00 14.5 18 Este 29 Este 0 -- -- 49
2019-03-24 10:00:00 11.9 17 Este 25 Este 0 -- -- 56
2019-03-24 09:00:00 8.1 3 Nordeste 10 Este 0 -- -- 68
2019-03-24 08:00:00 5.7 9 Este 10 Este 0 -- -- 74
2019-03-24 07:00:00 5.4 9 Este 13 Sudeste 0 -- -- 75
2019-03-24 06:00:00 6.1 4 Este 12 Sudeste 0 -- -- 73
2019-03-24 05:00:00 6.8 8 Este 16 Este 0 -- -- 71
2019-03-24 04:00:00 7.3 10 Este 15 Este 0 -- -- 68
2019-03-24 03:00:00 8 9 Este 14 Este 0 -- -- 63
2019-03-24 02:00:00 10 8 Nordeste 17 Este 0 -- -- 54
2019-03-24 01:00:00 11.1 12 Este 18 Este 0 -- -- 50
2019-03-24 00:00:00 12.6 8 Este 23 Este 0 -- -- 45
2019-03-23 23:00:00 12.7 7 Nordeste 22 Nordeste 0 -- -- 46
2019-03-23 22:00:00 13.9 9 Nordeste 18 Nordeste 0 -- -- 44
2019-03-23 21:00:00 14.8 12 Este 17 Este 0 -- -- 40
2019-03-23 20:00:00 15.4 9 Este 22 Nordeste 0 -- -- 39
2019-03-23 19:00:00 18.1 15 Nordeste 23 Este 0 -- -- 33
2019-03-23 18:00:00 20.3 17 Nordeste 30 Este 0 -- -- 30
2019-03-23 17:00:00 20.7 15 Nordeste 31 Nordeste 0 -- -- 30
2019-03-23 16:00:00 20.9 12 Nordeste 29 Este 0 -- -- 32
2019-03-23 15:00:00 20 16 Este 30 Nordeste 0 -- -- 33
2019-03-23 14:00:00 18.8 14 Este 25 Este 0 -- -- 35
2019-03-23 13:00:00 16.9 14 Nordeste 22 Nordeste 0 -- -- 39
2019-03-23 12:00:00 14.9 15 Nordeste 24 Nordeste 0 -- -- 44
2019-03-23 11:00:00 13.2 13 Este 22 Nordeste 0 -- -- 48
2019-03-23 10:00:00 9.8 17 Este 22 Este 0 -- -- 55
2019-03-23 09:00:00 6.8 10 Este 14 Este 0 -- -- 64
2019-03-23 08:00:00 4.1 8 Este 11 Este 0 -- -- 71
2019-03-23 07:00:00 3.8 8 Este 13 Este 0 -- -- 70
2019-03-23 06:00:00 4.7 9 Este 13 Este 0 -- -- 65
2019-03-23 05:00:00 5.3 11 Sudeste 15 Este 0 -- -- 63
2019-03-23 04:00:00 4.8 4 Nordeste 9 Este 0 -- -- 63
2019-03-23 03:00:00 6.6 6 Este 10 Este 0 -- -- 56
2019-03-23 02:00:00 7.5 7 Este 13 Este 0 -- -- 54
2019-03-23 01:00:00 8.2 9 Este 12 Sudeste 0 -- -- 53
2019-03-23 00:00:00 9.2 8 Sudeste 15 Sudeste 0 -- -- 50
2019-03-22 23:00:00 9.1 4 Sudeste 5 Sudeste 0 -- -- 47
2019-03-22 22:00:00 10.8 4 Este 13 Este 0 -- -- 42
2019-03-22 21:00:00 11.2 10 Sudeste 13 Este 0 -- -- 43
2019-03-22 20:00:00 12.5 8 Este 11 Este 0 -- -- 42
2019-03-22 19:00:00 17.6 8 Este 18 Este 0 -- -- 31
2019-03-22 18:00:00 18.9 6 Este 13 Sudeste 0 -- -- 29
2019-03-22 17:00:00 18.7 11 Este 22 Este 0 -- -- 28
2019-03-22 16:00:00 17.8 10 Norte 20 Norte 0 -- -- 29
2019-03-22 15:00:00 18.3 6 Norte 19 Nordeste 0 -- -- 33
2019-03-22 14:00:00 16.5 6 Noroeste 22 Nordeste 0 -- -- 37
2019-03-22 13:00:00 15.6 6 Noroeste 20 Noroeste 0 -- -- 34
2019-03-22 12:00:00 13.4 6 Norte 12 Norte 0 -- -- 47
2019-03-22 11:00:00 10.5 5 Norte 10 Norte 0 -- -- 58
2019-03-22 10:00:00 7 6 Nordeste 10 Este 0 -- -- 68
2019-03-22 09:00:00 5 6 Este 16 Este 0 -- -- 77
2019-03-22 08:00:00 2.1 5 Este 8 Este 0 -- -- 85
2019-03-22 07:00:00 2.1 7 Este 15 Este 0 -- -- 82
2019-03-22 06:00:00 1.9 9 Este 12 Este 0 -- -- 81
2019-03-22 05:00:00 1.4 3 Este 5 Sudeste 0 -- -- 81
2019-03-22 04:00:00 2.8 2 Este 7 Este 0 -- -- 79
2019-03-22 03:00:00 3.8 2 Nordeste 7 Este 0 -- -- 71
2019-03-22 02:00:00 4.8 3 Este 10 Este 0 -- -- 64
2019-03-22 01:00:00 4.9 5 Este 8 Este 0 -- -- 62
2019-03-22 00:00:00 6.7 2 Este 9 Sudeste 0 -- -- 50
2019-03-21 23:00:00 7.9 5 Este 12 Sudeste 0 -- -- 48
2019-03-21 22:00:00 8.7 9 Sudeste 21 Sudeste 0 -- -- 48
2019-03-21 21:00:00 9.3 12 Sudeste 16 Sudeste 0 -- -- 48
2019-03-21 20:00:00 10.6 8 Sudeste 10 Sudeste 0 -- -- 46
2019-03-21 19:00:00 16 5 Nordeste 12 Nordeste 0 -- -- 32
2019-03-21 18:00:00 16.2 7 Norte 19 Norte 0 -- -- 32
2019-03-21 17:00:00 17.3 6 Norte 19 Norte 0 -- -- 32
2019-03-21 16:00:00 16.1 9 Nordeste 18 Norte 0 -- -- 33
2019-03-21 15:00:00 15.9 9 Noroeste 21 Norte 0 -- -- 38
2019-03-21 14:00:00 14.6 9 Norte 22 Nordeste 0 -- -- 41
2019-03-21 13:00:00 13.1 10 Nordeste 22 Este 0 -- -- 44
2019-03-21 12:00:00 11.5 11 Este 24 Este 0 -- -- 48
2019-03-21 11:00:00 8.4 14 Este 26 Este 0 -- -- 57
2019-03-21 10:00:00 6 13 Este 23 Este 0 -- -- 65
2019-03-21 09:00:00 3 12 Este 20 Este 0 -- -- 77
2019-03-21 08:00:00 0.8 11 Este 17 Este 0 -- -- 85
2019-03-21 07:00:00 0.1 9 Este 19 Este 0 -- -- 85
2019-03-21 06:00:00 1 12 Este 19 Nordeste 0 -- -- 80
2019-03-21 05:00:00 1.1 10 Este 18 Este 0 -- -- 76
2019-03-21 04:00:00 1.4 11 Este 15 Este 0 -- -- 74
2019-03-21 03:00:00 1.8 10 Nordeste 16 Nordeste 0 -- -- 73
2019-03-21 02:00:00 2.9 9 Este 14 Nordeste 0 -- -- 69
2019-03-21 01:00:00 4.2 8 Este 27 Este 0 -- -- 64
2019-03-21 00:00:00 6 18 Este 40 Este 0 -- -- 58